Much Wenlock, United Kingdom
Current Conditions -  °F | °C
As of 11:38 AM on Thursday 27 Nov 2014 (Local Time) from EGOS Reporting Station
Haze Haze  
Wind Chill: 42°   Ceiling: 500
Heat Index: 45°   Visibility: 3mi
Dew Point: 45°   Wind: 5mph
Humidity: 100%   Direction: 180°S
Pressure: 29.56"   Gusts: NA
Location:  52.6°N, 2.56°W
Report Text: EGOS 271138Z 18004KT 5000 BR FEW003 BKN005 OVC023 07/07 Q1001 YLO1 BECMG BKN006 YLO1
Loading
Personal Weather Stations






























Interactive Weather Map New forecast layout! Learn more

10-Day Weather Forecast

Advertisements
Track Severe Weather on mobile